
Distance (Route):
Temperature : -15.4°C
Humidity : 17.6%
Pressure : 0hPa| Receiver | Frames | First received | Last received |
|---|---|---|---|
| LZ4TU-5 | 91 | 2026-09-01 23:36:59 | 2026-09-02 01:03:55 |
| Receiver | Date | Latitude | Longitude | Direction | Speed | Altitude | Climb | Temperature | Humidity | Pressure | Voltage | Killtimer | Uptime | BKT | XDATA |
|---|---|---|---|---|---|---|---|---|---|---|---|---|---|---|---|
| LZ4TU-5 | 2026-09-02 01:03:55 | 43.31388 | 20.88112 | 107° | 68km/h | 6760m | -13.7m/s | -15.4°C | 17.6% | 0hPa | 0V | 00:00:00 | 00:00:00 | 00:00:00 | |
| LZ4TU-5 | 2026-09-02 01:03:50 | 43.31413 | 20.88003 | 109° | 66km/h | 6820m | -12.5m/s | -15.9°C | 18.9% | 0hPa | 0V | 00:00:00 | 00:00:00 | 00:00:00 | |
| LZ4TU-5 | 2026-09-02 00:59:37 | 43.32317 | 20.81199 | 86° | 95km/h | 10105m | -14.4m/s | -40.9°C | 22.5% | 0hPa | 0V | 00:00:00 | 00:00:00 | 00:00:00 | |
| LZ4TU-5 | 2026-09-02 00:59:32 | 43.32303 | 20.81034 | 85° | 95km/h | 10178m | -14.6m/s | -41.6°C | 22.4% | 0hPa | 0V | 00:00:00 | 00:00:00 | 00:00:00 | |
| LZ4TU-5 | 2026-09-02 00:57:36 | 43.31889 | 20.76965 | 76° | 106km/h | 11766m | -14.4m/s | -51.1°C | 0% | 0hPa | 0V | 00:00:00 | 00:00:00 | 00:00:00 | |
| LZ4TU-5 | 2026-09-02 00:57:31 | 43.31856 | 20.76788 | 77° | 104km/h | 11827m | -11.5m/s | -51.4°C | 19.1% | 0hPa | 0V | 00:00:00 | 00:00:00 | 00:00:00 | |
| LZ4TU-5 | 2026-09-02 00:55:00 | 43.30956 | 20.71737 | 75° | 93km/h | 14201m | -18.0m/s | -61.1°C | 2.2% | 0hPa | 0V | 00:00:00 | 00:00:00 | 00:00:00 | |
| LZ4TU-5 | 2026-09-02 00:54:55 | 43.30928 | 20.71575 | 79° | 97km/h | 14292m | -18.4m/s | -60.9°C | 1.8% | 0hPa | 0V | 00:00:00 | 00:00:00 | 00:00:00 | |
| LZ4TU-5 | 2026-09-02 00:50:40 | 43.30647 | 20.66899 | 61° | 24km/h | 19061m | -18.8m/s | -58.4°C | 0.0% | 0hPa | 0V | 00:00:00 | 00:00:00 | 00:00:00 | |
| LZ4TU-5 | 2026-09-02 00:50:36 | 43.30636 | 20.66867 | 73° | 33km/h | 19136m | -19.3m/s | -58.5°C | 0.0% | 0hPa | 0V | 00:00:00 | 00:00:00 | 00:00:00 | |
| LZ4TU-5 | 2026-09-02 00:48:29 | 43.30421 | 20.66308 | 54° | 15km/h | 21129m | -14.0m/s | -57.4°C | 0.0% | 0hPa | 0V | 00:00:00 | 00:00:00 | 00:00:00 | |
| LZ4TU-5 | 2026-09-02 00:48:24 | 43.30406 | 20.66286 | 42° | 18km/h | 21200m | -14.3m/s | -57.3°C | 0.0% | 0hPa | 0V | 00:00:00 | 00:00:00 | 00:00:00 | |
| LZ4TU-5 | 2026-09-02 00:46:49 | 43.30492 | 20.65967 | 267° | 2km/h | 22811m | -22.1m/s | -53.5°C | 0.0% | 0hPa | 0V | 00:00:00 | 00:00:00 | 00:00:00 | |
| LZ4TU-5 | 2026-09-02 00:46:45 | 43.30495 | 20.65975 | 273° | 11km/h | 22901m | -24.6m/s | -53.3°C | 0.0% | 0hPa | 0V | 00:00:00 | 00:00:00 | 00:00:00 | |
| LZ4TU-5 | 2026-09-02 00:40:12 | 43.30017 | 20.67200 | 281° | 26km/h | 31714m | 8.1m/s | -41.8°C | 0.0% | 0hPa | 0V | 00:00:00 | 00:00:00 | 00:00:00 | |
| LZ4TU-5 | 2026-09-02 00:40:07 | 43.30027 | 20.67241 | 192° | 11km/h | 31680m | 7.1m/s | -42.0°C | 0.0% | 0hPa | 0V | 00:00:00 | 00:00:00 | 00:00:00 | |
| LZ4TU-5 | 2026-09-02 00:38:34 | 43.29827 | 20.67742 | 247° | 40km/h | 31004m | 4.5m/s | -43.0°C | 0.0% | 0hPa | 0V | 00:00:00 | 00:00:00 | 00:00:00 | |
| LZ4TU-5 | 2026-09-02 00:38:29 | 43.29816 | 20.67766 | 55° | 16km/h | 30968m | 5.3m/s | -43.0°C | 0.0% | 0hPa | 0V | 00:00:00 | 00:00:00 | 00:00:00 | |
| LZ4TU-5 | 2026-09-02 00:36:54 | 43.29732 | 20.68083 | 263° | 20km/h | 30300m | 7.1m/s | -44.0°C | 0.0% | 0hPa | 0V | 00:00:00 | 00:00:00 | 00:00:00 | |
| LZ4TU-5 | 2026-09-02 00:36:50 | 43.29721 | 20.68104 | 315° | 24km/h | 30273m | 7.9m/s | -43.8°C | 0.0% | 0hPa | 0V | 00:00:00 | 00:00:00 | 00:00:00 | |
| LZ4TU-5 | 2026-09-02 00:36:45 | 43.29711 | 20.68129 | 294° | 13km/h | 30239m | 6.0m/s | -43.7°C | 0.0% | 0hPa | 0V | 00:00:00 | 00:00:00 | 00:00:00 | |
| LZ4TU-5 | 2026-09-02 00:36:40 | 43.29715 | 20.68165 | 266° | 35km/h | 30205m | 6.9m/s | -43.8°C | 0.0% | 0hPa | 0V | 00:00:00 | 00:00:00 | 00:00:00 | |
| LZ4TU-5 | 2026-09-02 00:34:47 | 43.29910 | 20.68472 | 307° | 22km/h | 29396m | 6.2m/s | -46.4°C | 0.0% | 0hPa | 0V | 00:00:00 | 00:00:00 | 00:00:00 | |
| LZ4TU-5 | 2026-09-02 00:34:42 | 43.29892 | 20.68477 | 27° | 24km/h | 29368m | 5.4m/s | -46.6°C | 0.0% | 0hPa | 0V | 00:00:00 | 00:00:00 | 00:00:00 | |
| LZ4TU-5 | 2026-09-02 00:34:37 | 43.29873 | 20.68485 | 289° | 18km/h | 29337m | 6.3m/s | -46.5°C | 0.0% | 0hPa | 0V | 00:00:00 | 00:00:00 | 00:00:00 | |
| LZ4TU-5 | 2026-09-02 00:33:04 | 43.29732 | 20.68826 | 351° | 26km/h | 28698m | 7.1m/s | -47.9°C | 0.0% | 0hPa | 0V | 00:00:00 | 00:00:00 | 00:00:00 | |
| LZ4TU-5 | 2026-09-02 00:32:59 | 43.29721 | 20.68844 | 307° | 18km/h | 28664m | 7.2m/s | -47.9°C | 0.0% | 0hPa | 0V | 00:00:00 | 00:00:00 | 00:00:00 | |
| LZ4TU-5 | 2026-09-02 00:31:25 | 43.29583 | 20.69184 | 295° | 38km/h | 28034m | 7.0m/s | -48.7°C | 0.0% | 0hPa | 0V | 00:00:00 | 00:00:00 | 00:00:00 | |
| LZ4TU-5 | 2026-09-02 00:31:21 | 43.29567 | 20.69211 | 23° | 22km/h | 28001m | 6.4m/s | -48.7°C | 0.0% | 0hPa | 0V | 00:00:00 | 00:00:00 | 00:00:00 | |
| LZ4TU-5 | 2026-09-02 00:29:49 | 43.29662 | 20.69355 | 212° | 13km/h | 27408m | 5.8m/s | -48.2°C | 0.0% | 0hPa | 0V | 00:00:00 | 00:00:00 | 00:00:00 | |
| LZ4TU-5 | 2026-09-02 00:29:45 | 43.29665 | 20.69353 | 59° | 13km/h | 27381m | 5.8m/s | -48.0°C | 0.0% | 0hPa | 0V | 00:00:00 | 00:00:00 | 00:00:00 | |
| LZ4TU-5 | 2026-09-02 00:28:10 | 43.29427 | 20.69294 | 320° | 22km/h | 26746m | 8.0m/s | -49.8°C | 0.0% | 0hPa | 0V | 00:00:00 | 00:00:00 | 00:00:00 | |
| LZ4TU-5 | 2026-09-02 00:28:05 | 43.29402 | 20.69331 | 300° | 15km/h | 26713m | 7.8m/s | -49.9°C | 0.0% | 0hPa | 0V | 00:00:00 | 00:00:00 | 00:00:00 | |
| LZ4TU-5 | 2026-09-02 00:26:26 | 43.29305 | 20.69538 | 233° | 15km/h | 26051m | 6.5m/s | -49.9°C | 0.0% | 0hPa | 0V | 00:00:00 | 00:00:00 | 00:00:00 | |
| LZ4TU-5 | 2026-09-02 00:26:21 | 43.29320 | 20.69551 | 244° | 15km/h | 26017m | 7.7m/s | -50.2°C | 0.0% | 0hPa | 0V | 00:00:00 | 00:00:00 | 00:00:00 | |
| LZ4TU-5 | 2026-09-02 00:24:48 | 43.29426 | 20.69404 | 151° | 9km/h | 25379m | 6.3m/s | -50.0°C | 0.0% | 0hPa | 0V | 00:00:00 | 00:00:00 | 00:00:00 | |
| LZ4TU-5 | 2026-09-02 00:24:44 | 43.29423 | 20.69384 | 19° | 22km/h | 25347m | 7.4m/s | -49.9°C | 0.0% | 0hPa | 0V | 00:00:00 | 00:00:00 | 00:00:00 | |
| LZ4TU-5 | 2026-09-02 00:23:09 | 43.29256 | 20.69582 | 163° | 11km/h | 24704m | 6.9m/s | -50.9°C | 0.0% | 0hPa | 0V | 00:00:00 | 00:00:00 | 00:00:00 | |
| LZ4TU-5 | 2026-09-02 00:23:04 | 43.29265 | 20.69571 | 98° | 11km/h | 24676m | 5.8m/s | -51.0°C | 0.0% | 0hPa | 0V | 00:00:00 | 00:00:00 | 00:00:00 | |
| LZ4TU-5 | 2026-09-02 00:21:29 | 43.29444 | 20.69374 | 339° | 9km/h | 24072m | 7.3m/s | -52.4°C | 0.0% | 0hPa | 0V | 00:00:00 | 00:00:00 | 00:00:00 | |
| LZ4TU-5 | 2026-09-02 00:21:24 | 43.29438 | 20.69390 | 261° | 7km/h | 24040m | 6.5m/s | -52.4°C | 0.0% | 0hPa | 0V | 00:00:00 | 00:00:00 | 00:00:00 | |
| LZ4TU-5 | 2026-09-02 00:19:48 | 43.29390 | 20.69429 | 210° | 11km/h | 23470m | 5.0m/s | -53.9°C | 0.0% | 0hPa | 0V | 00:00:00 | 00:00:00 | 00:00:00 | |
| LZ4TU-5 | 2026-09-02 00:19:43 | 43.29414 | 20.69442 | 195° | 16km/h | 23439m | 4.7m/s | -54.1°C | 0.0% | 0hPa | 0V | 00:00:00 | 00:00:00 | 00:00:00 | |
| LZ4TU-5 | 2026-09-02 00:18:09 | 43.29442 | 20.69729 | 268° | 11km/h | 22858m | 6.7m/s | -53.3°C | 0.0% | 0hPa | 0V | 00:00:00 | 00:00:00 | 00:00:00 | |
| LZ4TU-5 | 2026-09-02 00:18:05 | 43.29451 | 20.69724 | 150° | 7km/h | 22827m | 6.1m/s | -53.5°C | 0.0% | 0hPa | 0V | 00:00:00 | 00:00:00 | 00:00:00 | |
| LZ4TU-5 | 2026-09-02 00:16:30 | 43.29571 | 20.69513 | 163° | 15km/h | 22261m | 5.1m/s | -53.9°C | 0.0% | 0hPa | 0V | 00:00:00 | 00:00:00 | 00:00:00 | |
| LZ4TU-5 | 2026-09-02 00:16:25 | 43.29563 | 20.69506 | 300° | 11km/h | 22230m | 5.4m/s | -54.1°C | 0.0% | 0hPa | 0V | 00:00:00 | 00:00:00 | 00:00:00 | |
| LZ4TU-5 | 2026-09-02 00:14:42 | 43.29700 | 20.68971 | 31° | 27km/h | 21623m | 5.6m/s | -56.6°C | 0.0% | 0hPa | 0V | 00:00:00 | 00:00:00 | 00:00:00 | |
| LZ4TU-5 | 2026-09-02 00:14:37 | 43.29680 | 20.68943 | 53° | 20km/h | 21594m | 5.4m/s | -56.6°C | 0.0% | 0hPa | 0V | 00:00:00 | 00:00:00 | 00:00:00 | |
| LZ4TU-5 | 2026-09-02 00:12:53 | 43.29356 | 20.68612 | 31° | 24km/h | 20960m | 6.5m/s | -56.6°C | 0.0% | 0hPa | 0V | 00:00:00 | 00:00:00 | 00:00:00 | |
| LZ4TU-5 | 2026-09-02 00:12:48 | 43.29346 | 20.68597 | 72° | 11km/h | 20930m | 5.4m/s | -56.5°C | 0.0% | 0hPa | 0V | 00:00:00 | 00:00:00 | 00:00:00 | |
| LZ4TU-5 | 2026-09-02 00:12:43 | 43.29328 | 20.68571 | 6° | 26km/h | 20902m | 6.1m/s | -56.3°C | 0.0% | 0hPa | 0V | 00:00:00 | 00:00:00 | 00:00:00 | |
| LZ4TU-5 | 2026-09-02 00:10:55 | 43.29156 | 20.68412 | 99° | 11km/h | 20249m | 7.1m/s | -56.1°C | 0.0% | 0hPa | 0V | 00:00:00 | 00:00:00 | 00:00:00 | |
| LZ4TU-5 | 2026-09-02 00:10:50 | 43.29151 | 20.68377 | 60° | 31km/h | 20221m | 6.0m/s | -56.1°C | 0.0% | 0hPa | 0V | 00:00:00 | 00:00:00 | 00:00:00 | |
| LZ4TU-5 | 2026-09-02 00:09:06 | 43.29052 | 20.67896 | 91° | 35km/h | 19613m | 5.8m/s | -57.0°C | 0.0% | 0hPa | 0V | 00:00:00 | 00:00:00 | 00:00:00 | |
| LZ4TU-5 | 2026-09-02 00:09:02 | 43.29044 | 20.67861 | 62° | 24km/h | 19590m | 5.5m/s | -56.9°C | 0.0% | 0hPa | 0V | 00:00:00 | 00:00:00 | 00:00:00 | |
| LZ4TU-5 | 2026-09-02 00:07:15 | 43.28948 | 20.67035 | 58° | 20km/h | 18960m | 5.4m/s | -57.7°C | 0.0% | 0hPa | 0V | 00:00:00 | 00:00:00 | 00:00:00 | |
| LZ4TU-5 | 2026-09-02 00:07:10 | 43.28930 | 20.66999 | 30° | 29km/h | 18931m | 4.2m/s | -57.5°C | 0.0% | 0hPa | 0V | 00:00:00 | 00:00:00 | 00:00:00 | |
| LZ4TU-5 | 2026-09-02 00:05:28 | 43.28992 | 20.66827 | 109° | 37km/h | 18341m | 5.3m/s | -56.2°C | 0.0% | 0hPa | 0V | 00:00:00 | 00:00:00 | 00:00:00 | |
| LZ4TU-5 | 2026-09-02 00:05:24 | 43.29019 | 20.66778 | 145° | 27km/h | 18312m | 5.9m/s | -56.7°C | 0.0% | 0hPa | 0V | 00:00:00 | 00:00:00 | 00:00:00 | |
| LZ4TU-5 | 2026-09-02 00:03:52 | 43.28974 | 20.65503 | 69° | 33km/h | 17785m | 6.1m/s | -57.6°C | 0.5% | 0hPa | 0V | 00:00:00 | 00:00:00 | 00:00:00 | |
| LZ4TU-5 | 2026-09-02 00:03:47 | 43.28959 | 20.65462 | 65° | 40km/h | 17765m | 4.2m/s | -57.7°C | 0.5% | 0hPa | 0V | 00:00:00 | 00:00:00 | 00:00:00 | |
| LZ4TU-5 | 2026-09-02 00:01:56 | 43.29339 | 20.63536 | 97° | 62km/h | 17142m | 6.8m/s | -58.8°C | 1.6% | 0hPa | 0V | 00:00:00 | 00:00:00 | 00:00:00 | |
| LZ4TU-5 | 2026-09-02 00:01:53 | 43.29349 | 20.63422 | 100° | 77km/h | 17115m | 5.2m/s | -58.7°C | 1.6% | 0hPa | 0V | 00:00:00 | 00:00:00 | 00:00:00 | |
| LZ4TU-5 | 2026-09-01 23:58:54 | 43.28663 | 20.60632 | 83° | 49km/h | 16186m | 5.8m/s | -61.0°C | 4.2% | 0hPa | 0V | 00:00:00 | 00:00:00 | 00:00:00 | |
| LZ4TU-5 | 2026-09-01 23:58:49 | 43.28655 | 20.60545 | 83° | 58km/h | 16160m | 5.0m/s | -61.0°C | 4.2% | 0hPa | 0V | 00:00:00 | 00:00:00 | 00:00:00 | |
| LZ4TU-5 | 2026-09-01 23:57:10 | 43.28926 | 20.58312 | 99° | 77km/h | 15620m | 5.3m/s | -60.9°C | 5.5% | 0hPa | 0V | 00:00:00 | 00:00:00 | 00:00:00 | |
| LZ4TU-5 | 2026-09-01 23:57:05 | 43.28947 | 20.58174 | 101° | 78km/h | 15592m | 4.5m/s | -60.9°C | 5.7% | 0hPa | 0V | 00:00:00 | 00:00:00 | 00:00:00 | |
| LZ4TU-5 | 2026-09-01 23:55:29 | 43.28754 | 20.55552 | 78° | 82km/h | 15089m | 4.9m/s | -60.8°C | 8.1% | 0hPa | 0V | 00:00:00 | 00:00:00 | 00:00:00 | |
| LZ4TU-5 | 2026-09-01 23:55:24 | 43.28736 | 20.55410 | 85° | 86km/h | 15061m | 5.7m/s | -60.7°C | 8.2% | 0hPa | 0V | 00:00:00 | 00:00:00 | 00:00:00 | |
| LZ4TU-5 | 2026-09-01 23:53:42 | 43.28307 | 20.52425 | 70° | 91km/h | 14537m | 4.2m/s | -60.6°C | 13.2% | 0hPa | 0V | 00:00:00 | 00:00:00 | 00:00:00 | |
| LZ4TU-5 | 2026-09-01 23:53:38 | 43.28281 | 20.52306 | 80° | 89km/h | 14518m | 5.7m/s | -60.7°C | 13.4% | 0hPa | 0V | 00:00:00 | 00:00:00 | 00:00:00 | |
| LZ4TU-5 | 2026-09-01 23:51:59 | 43.27686 | 20.49331 | 80° | 99km/h | 14014m | 6.3m/s | -60.7°C | 17.6% | 0hPa | 0V | 00:00:00 | 00:00:00 | 00:00:00 | |
| LZ4TU-5 | 2026-09-01 23:51:54 | 43.27660 | 20.49173 | 76° | 77km/h | 13989m | 4.8m/s | -60.8°C | 17.8% | 0hPa | 0V | 00:00:00 | 00:00:00 | 00:00:00 | |
| LZ4TU-5 | 2026-09-01 23:50:07 | 43.26993 | 20.45839 | 82° | 95km/h | 13395m | 5.6m/s | -59.6°C | 19.3% | 0hPa | 0V | 00:00:00 | 00:00:00 | 00:00:00 | |
| LZ4TU-5 | 2026-09-01 23:50:03 | 43.26984 | 20.45704 | 84° | 102km/h | 13376m | 3.8m/s | -59.6°C | 19.3% | 0hPa | 0V | 00:00:00 | 00:00:00 | 00:00:00 | |
| LZ4TU-5 | 2026-09-01 23:48:19 | 43.26560 | 20.41960 | 81° | 108km/h | 12815m | 5.5m/s | -57.0°C | 20.3% | 0hPa | 0V | 00:00:00 | 00:00:00 | 00:00:00 | |
| LZ4TU-5 | 2026-09-01 23:48:14 | 43.26535 | 20.41778 | 80° | 108km/h | 12790m | 4.4m/s | -57.0°C | 20.2% | 0hPa | 0V | 00:00:00 | 00:00:00 | 00:00:00 | |
| LZ4TU-5 | 2026-09-01 23:46:35 | 43.25927 | 20.38229 | 75° | 99km/h | 12245m | 7.4m/s | -54.2°C | 19.9% | 0hPa | 0V | 00:00:00 | 00:00:00 | 00:00:00 | |
| LZ4TU-5 | 2026-09-01 23:46:30 | 43.25893 | 20.38064 | 77° | 119km/h | 12218m | 4.8m/s | -53.9°C | 20.0% | 0hPa | 0V | 00:00:00 | 00:00:00 | 00:00:00 | |
| LZ4TU-5 | 2026-09-01 23:44:50 | 43.25312 | 20.34575 | 76° | 117km/h | 11693m | 5.7m/s | -50.9°C | 21.8% | 0hPa | 0V | 00:00:00 | 00:00:00 | 00:00:00 | |
| LZ4TU-5 | 2026-09-01 23:44:45 | 43.25274 | 20.34377 | 80° | 100km/h | 11662m | 5.6m/s | -50.7°C | 22.1% | 0hPa | 0V | 00:00:00 | 00:00:00 | 00:00:00 | |
| LZ4TU-5 | 2026-09-01 23:43:07 | 43.24814 | 20.30811 | 85° | 120km/h | 11117m | 6.0m/s | -47.6°C | 38.9% | 0hPa | 0V | 00:00:00 | 00:00:00 | 00:00:00 | |
| LZ4TU-5 | 2026-09-01 23:43:02 | 43.24782 | 20.30628 | 75° | 110km/h | 11087m | 4.7m/s | -47.2°C | 39.5% | 0hPa | 0V | 00:00:00 | 00:00:00 | 00:00:00 | |
| LZ4TU-5 | 2026-09-01 23:41:38 | 43.24406 | 20.27537 | 79° | 99km/h | 10642m | 4.4m/s | -43.7°C | 18.5% | 0hPa | 0V | 00:00:00 | 00:00:00 | 00:00:00 | |
| LZ4TU-5 | 2026-09-01 23:41:34 | 43.24384 | 20.27398 | 83° | 99km/h | 10622m | 5.0m/s | -43.6°C | 18.7% | 0hPa | 0V | 00:00:00 | 00:00:00 | 00:00:00 | |
| LZ4TU-5 | 2026-09-01 23:40:09 | 43.24171 | 20.24568 | 91° | 97km/h | 10177m | 5.6m/s | -41.4°C | 19.5% | 0hPa | 0V | 00:00:00 | 00:00:00 | 00:00:00 | |
| LZ4TU-5 | 2026-09-01 23:40:04 | 43.24173 | 20.24388 | 87° | 100km/h | 10153m | 6.3m/s | -41.2°C | 19.2% | 0hPa | 0V | 00:00:00 | 00:00:00 | 00:00:00 | |
| LZ4TU-5 | 2026-09-01 23:38:30 | 43.24125 | 20.21284 | 106° | 99km/h | 9614m | 5.6m/s | -37.2°C | 18.0% | 0hPa | 0V | 00:00:00 | 00:00:00 | 00:00:00 | |
| LZ4TU-5 | 2026-09-01 23:38:25 | 43.24134 | 20.21137 | 88° | 84km/h | 9576m | 7.8m/s | -37.0°C | 17.9% | 0hPa | 0V | 00:00:00 | 00:00:00 | 00:00:00 | |
| LZ4TU-5 | 2026-09-01 23:36:59 | 43.24227 | 20.18492 | 95° | 95km/h | 9085m | 4.8m/s | -33.4°C | 16.7% | 0hPa | 0V | 00:00:00 | 00:00:00 | 00:00:00 |